KOUN/OUN METAR and TAF weather

Enter ICAO airport designator
Station Type Date Time Source
KOUN METAR 2019/02/22 21:45 UTC NOAA

KOUN 222145Z 06007KT 2SM +RA BR OVC005 08/06 A2990


Station Type Date Time Source
KOUN Decoded METAR 2019/02/22 21:45 UTC NOAA

Norman / Max Westheimer, OK, United States (KOUN) 35-13N 097-27W 357M
Feb 22, 2019 - 04:45 PM EST / 2019.02.22 2145 UTC
Wind: from the ENE (060 degrees) at 8 MPH (7 KT):0
Visibility: 2 mile(s):0
Sky conditions: overcast
Weather: heavy rain; mist
Temperature: 46 F (8 C)
Dew Point: 42 F (6 C)
Relative Humidity: 87%
Pressure (altimeter): 29.9 in. Hg (1012 hPa)
ob: KOUN 222145Z 06007KT 2SM +RA BR OVC005 08/06 A2990
cycle: 22

Station Type Date Time Source
KOUN TAF 2019/02/22 20:15 UTC NOAA

TAF
AMD KOUN 222013Z 2220/2318 08008KT P6SM OVC006
FM230000 13007KT 2SM BR OVC002
FM230900 17014G24KT 4SM RA BR OVC003
FM231500 21030G40KT P6SM SKC


Example: see airport list